Time;durP1;ratioP1;P1;durP2;ratioP2;P2;SDS_P1;SDS_P2;PMS_P1;PMS_P2;Temp;Humidity;BMP_temperature;BMP_pressure;BME280_temperature;BME280_humidity;BME280_pressure;Samples;Min_cycle;Max_cycle;Signal;HPM_P1;HPM_P2
2022/06/06 00:01:15;;;;;;;13.35;9.38;;;15.50;99.90;;;;;;5084683;28;20286;-79
2022/06/06 00:03:42;;;;;;;15.23;10.18;;;15.50;99.90;;;;;;5064168;28;20070;-78
2022/06/06 00:06:14;;;;;;;13.50;9.25;;;15.50;99.90;;;;;;5066306;28;20144;-79
2022/06/06 00:08:40;;;;;;;13.25;9.40;;;15.50;99.90;;;;;;5067367;28;20105;-79
2022/06/06 00:11:09;;;;;;;13.93;10.02;;;15.40;99.90;;;;;;5086793;28;20047;-79
2022/06/06 00:13:36;;;;;;;15.10;10.63;;;15.50;99.90;;;;;;5064840;28;20060;-79
2022/06/06 00:16:03;;;;;;;16.48;11.38;;;15.50;99.90;;;;;;5067554;28;20127;-78
2022/06/06 00:18:29;;;;;;;17.13;11.60;;;15.40;99.90;;;;;;5083976;28;20036;-80
2022/06/06 00:20:55;;;;;;;16.38;11.57;;;15.40;99.90;;;;;;5085309;28;20044;-78
2022/06/06 00:23:23;;;;;;;17.95;11.13;;;15.50;99.90;;;;;;5064974;28;20384;-79
2022/06/06 00:25:48;;;;;;;18.27;10.98;;;15.50;99.90;;;;;;5065854;28;20092;-79
2022/06/06 00:28:14;;;;;;;17.15;10.77;;;15.40;99.90;;;;;;5064747;28;20063;-79
2022/06/06 00:30:40;;;;;;;14.63;11.02;;;15.40;99.90;;;;;;5068296;28;20055;-79
2022/06/06 00:35:50;;;;;;;16.98;9.88;;;15.40;99.90;;;;;;5068824;28;20507;-78
2022/06/06 00:38:16;;;;;;;24.92;11.05;;;15.40;99.90;;;;;;5067237;28;20048;-79
2022/06/06 00:40:47;;;;;;;20.08;10.88;;;15.30;99.90;;;;;;5052958;28;20043;-78
2022/06/06 00:43:12;;;;;;;21.77;11.30;;;15.40;99.90;;;;;;5065387;28;20044;-79
2022/06/06 00:45:39;;;;;;;20.00;10.32;;;15.40;99.90;;;;;;5052032;28;20040;-79
2022/06/06 00:48:13;;;;;;;17.80;10.55;;;15.40;99.90;;;;;;5063776;28;20047;-80
2022/06/06 00:50:53;;;;;;;19.30;10.55;;;15.30;99.90;;;;;;5050388;28;20462;-79
2022/06/06 00:53:48;;;;;;;16.95;9.77;;;15.30;99.90;;;;;;5083186;28;20028;-79
2022/06/06 00:56:25;;;;;;;18.95;10.52;;;15.30;99.90;;;;;;5068083;28;20060;-78
2022/06/06 00:58:59;;;;;;;15.18;10.35;;;15.30;99.90;;;;;;5090433;28;20046;-79
2022/06/06 01:01:26;;;;;;;18.48;10.38;;;15.20;99.90;;;;;;5067487;28;20444;-78
2022/06/06 01:03:52;;;;;;;15.63;10.40;;;15.20;99.90;;;;;;5068832;28;20036;-79
2022/06/06 01:06:19;;;;;;;16.85;10.27;;;15.20;99.90;;;;;;5085770;28;20055;-77
2022/06/06 01:08:47;;;;;;;16.00;10.63;;;15.20;99.90;;;;;;5070096;28;20454;-77
2022/06/06 01:11:12;;;;;;;15.77;10.43;;;15.20;99.90;;;;;;5069802;28;20365;-77
2022/06/06 01:13:41;;;;;;;16.20;10.32;;;15.20;99.90;;;;;;5052671;28;20055;-77
2022/06/06 01:16:28;;;;;;;16.70;10.95;;;15.20;99.90;;;;;;5070196;28;20118;-77
2022/06/06 01:18:56;;;;;;;17.17;11.35;;;15.10;99.90;;;;;;5086378;28;20044;-77
2022/06/06 01:21:44;;;;;;;16.88;10.50;;;15.10;99.90;;;;;;5087753;28;20555;-77
2022/06/06 01:24:31;;;;;;;18.63;11.68;;;15.00;99.90;;;;;;5088339;28;20504;-77
2022/06/06 01:27:19;;;;;;;16.08;11.07;;;15.00;99.90;;;;;;5052305;28;20083;-79
2022/06/06 01:29:49;;;;;;;19.77;11.43;;;15.00;99.90;;;;;;5069377;28;20058;-79
2022/06/06 01:32:20;;;;;;;19.77;11.68;;;14.90;99.90;;;;;;5054629;28;20080;-78
2022/06/06 01:34:51;;;;;;;14.90;10.27;;;14.90;99.90;;;;;;5053401;28;20035;-78
2022/06/06 01:37:40;;;;;;;20.80;10.38;;;14.90;99.90;;;;;;5069454;28;20052;-78
2022/06/06 01:40:11;;;;;;;17.45;9.93;;;14.80;99.90;;;;;;5088564;28;20040;-78
2022/06/06 01:43:01;;;;;;;17.50;10.52;;;14.80;99.90;;;;;;5068122;28;20454;-78
2022/06/06 01:45:49;;;;;;;17.33;10.40;;;14.70;99.90;;;;;;5046043;28;20063;-77
2022/06/06 01:48:18;;;;;;;17.73;9.07;;;14.70;99.90;;;;;;5068294;28;20115;-78
2022/06/06 01:50:44;;;;;;;15.25;8.68;;;14.70;99.90;;;;;;5056553;28;20051;-78
2022/06/06 01:53:14;;;;;;;16.52;8.77;;;14.70;99.90;;;;;;5071531;28;20416;-79
2022/06/06 01:55:42;;;;;;;13.07;8.20;;;14.60;99.90;;;;;;5071032;28;20044;-79
2022/06/06 01:58:16;;;;;;;13.90;8.20;;;14.60;99.90;;;;;;5074599;28;20045;-80
2022/06/06 02:00:42;;;;;;;14.90;8.55;;;14.60;99.90;;;;;;5072972;28;20392;-79
2022/06/06 02:03:08;;;;;;;11.75;7.38;;;14.50;99.90;;;;;;5072126;28;20126;-78
2022/06/06 02:05:34;;;;;;;11.63;6.93;;;14.50;99.90;;;;;;5073100;28;20150;-79
2022/06/06 02:08:00;;;;;;;10.90;6.25;;;14.50;99.90;;;;;;5093347;28;20367;-79
2022/06/06 02:10:26;;;;;;;11.15;6.22;;;14.50;99.90;;;;;;5100020;28;20043;-80
2022/06/06 02:12:52;;;;;;;12.68;5.95;;;14.40;99.90;;;;;;5068993;28;20063;-80
2022/06/06 02:15:22;;;;;;;11.02;5.45;;;14.40;99.90;;;;;;5070575;28;20411;-80
2022/06/06 02:17:48;;;;;;;11.50;5.55;;;14.30;99.90;;;;;;5054664;28;20028;-80
2022/06/06 02:20:16;;;;;;;10.88;5.43;;;14.30;99.90;;;;;;5088580;28;20108;-79
2022/06/06 02:22:43;;;;;;;12.40;6.00;;;14.30;99.90;;;;;;5054880;28;20388;-77
2022/06/06 02:25:10;;;;;;;9.30;4.50;;;14.20;99.90;;;;;;5066465;28;20045;-78
2022/06/06 02:27:37;;;;;;;13.50;5.35;;;14.20;99.90;;;;;;5070486;28;20066;-77
2022/06/06 02:30:05;;;;;;;9.38;4.95;;;14.20;99.90;;;;;;5088123;28;20070;-78
2022/06/06 02:32:31;;;;;;;10.73;5.32;;;14.10;99.90;;;;;;5070914;28;20044;-78
2022/06/06 02:34:58;;;;;;;9.15;5.18;;;14.10;99.90;;;;;;5052983;28;20036;-78
2022/06/06 02:37:23;;;;;;;11.75;5.88;;;14.10;99.90;;;;;;5086265;28;20577;-77
2022/06/06 02:39:50;;;;;;;17.65;6.72;;;14.10;99.90;;;;;;5069382;28;20071;-77
2022/06/06 02:42:16;;;;;;;12.50;6.25;;;14.10;99.90;;;;;;5068017;28;20083;-77
2022/06/06 02:44:42;;;;;;;15.00;6.47;;;14.10;99.90;;;;;;5068459;28;20044;-78
2022/06/06 02:47:07;;;;;;;11.77;6.07;;;14.10;99.90;;;;;;5069377;28;20043;-76
2022/06/06 02:49:34;;;;;;;11.48;6.32;;;14.10;99.90;;;;;;5089005;28;21058;-76
2022/06/06 02:52:07;;;;;;;11.77;6.85;;;14.10;99.90;;;;;;5085332;28;20131;-77
2022/06/06 02:54:33;;;;;;;16.15;6.70;;;14.10;99.90;;;;;;5066434;28;20046;-76
2022/06/06 02:56:59;;;;;;;13.23;7.05;;;14.00;99.90;;;;;;5067544;28;20036;-77
2022/06/06 02:59:28;;;;;;;15.52;6.97;;;14.10;99.90;;;;;;5067901;28;20048;-76
2022/06/06 03:01:53;;;;;;;14.70;7.95;;;14.10;99.90;;;;;;5085363;28;20078;-76
2022/06/06 03:04:19;;;;;;;14.40;7.53;;;14.00;99.90;;;;;;5086092;28;20071;-75
2022/06/06 03:07:20;;;;;;;16.20;7.47;;;14.10;99.90;;;;;;5068424;28;20606;-76
2022/06/06 03:10:21;;;;;;;15.35;7.65;;;14.10;99.90;;;;;;5068876;28;20075;-76
2022/06/06 03:13:05;;;;;;;14.82;7.50;;;14.10;99.90;;;;;;5031944;28;20075;-76
2022/06/06 03:22:07;;;;;;;12.80;7.57;;;14.00;99.90;;;;;;5064170;28;20336;-76
2022/06/06 03:24:51;;;;;;;16.93;7.83;;;14.10;99.90;;;;;;5067032;28;20122;-77
2022/06/06 03:27:43;;;;;;;13.00;7.18;;;14.00;99.90;;;;;;5050572;28;20341;-76
2022/06/06 03:30:30;;;;;;;11.80;8.13;;;14.00;99.90;;;;;;5068311;28;20059;-76
2022/06/06 03:33:15;;;;;;;11.38;7.18;;;14.00;99.90;;;;;;5082562;28;20613;-76
2022/06/06 03:36:22;;;;;;;13.05;7.28;;;14.00;99.90;;;;;;5066879;28;20124;-76
2022/06/06 03:39:20;;;;;;;12.77;6.93;;;14.00;99.90;;;;;;5014646;28;20048;-75
2022/06/06 03:41:49;;;;;;;13.95;7.20;;;14.00;99.90;;;;;;5052602;28;20052;-77
2022/06/06 03:44:20;;;;;;;15.00;8.00;;;14.00;99.90;;;;;;5066094;28;20400;-76
2022/06/06 03:46:54;;;;;;;12.18;6.43;;;14.00;99.90;;;;;;5086000;28;20048;-76
2022/06/06 03:49:25;;;;;;;10.65;6.63;;;14.00;99.90;;;;;;5068303;28;20047;-77
2022/06/06 03:52:31;;;;;;;10.95;6.25;;;14.00;99.90;;;;;;5047217;28;20074;-76
2022/06/06 03:55:08;;;;;;;12.30;6.10;;;14.00;99.90;;;;;;5040451;28;20048;-77
2022/06/06 03:57:36;;;;;;;11.73;6.45;;;14.00;99.90;;;;;;5065674;28;20063;-76
2022/06/06 04:00:12;;;;;;;12.55;6.78;;;14.10;99.90;;;;;;5049607;28;20044;-76
2022/06/06 04:02:41;;;;;;;10.70;6.18;;;13.90;99.90;;;;;;5047850;28;20500;-76
2022/06/06 04:05:13;;;;;;;12.00;6.53;;;13.90;99.90;;;;;;5049945;28;20042;-76
2022/06/06 04:07:39;;;;;;;11.15;6.00;;;13.90;99.90;;;;;;5084579;28;20045;-76
2022/06/06 04:10:06;;;;;;;10.82;6.05;;;13.90;99.90;;;;;;5083045;28;20092;-76
2022/06/06 04:12:40;;;;;;;10.90;5.85;;;14.00;99.90;;;;;;5067075;28;20505;-75
2022/06/06 04:15:24;;;;;;;12.27;6.28;;;14.00;99.90;;;;;;5064079;28;20450;-76
2022/06/06 04:18:16;;;;;;;7.90;5.05;;;14.00;99.90;;;;;;5047686;28;20060;-76
2022/06/06 04:21:11;;;;;;;10.68;5.90;;;14.00;99.90;;;;;;5028738;28;20138;-76
2022/06/06 04:23:57;;;;;;;12.48;6.32;;;14.00;99.90;;;;;;5032324;28;20055;-76
2022/06/06 04:26:38;;;;;;;8.98;6.03;;;14.00;99.90;;;;;;5066282;28;20059;-77
2022/06/06 04:29:17;;;;;;;12.32;5.78;;;14.00;99.90;;;;;;5049633;28;20464;-77
2022/06/06 04:32:10;;;;;;;8.27;5.15;;;14.00;99.90;;;;;;5071270;28;20056;-77
2022/06/06 04:34:44;;;;;;;8.45;5.47;;;14.00;99.90;;;;;;5070854;28;20415;-76
2022/06/06 04:37:25;;;;;;;8.73;4.93;;;14.00;99.90;;;;;;5064169;28;20062;-77
2022/06/06 04:40:08;;;;;;;7.50;4.60;;;14.00;99.90;;;;;;5071330;28;20443;-76
2022/06/06 04:42:47;;;;;;;9.52;4.55;;;14.00;99.90;;;;;;5072736;28;20450;-77
2022/06/06 04:45:35;;;;;;;17.15;4.80;;;14.10;99.90;;;;;;5067222;28;20039;-77
2022/06/06 04:48:04;;;;;;;5.82;3.63;;;14.10;99.90;;;;;;5071042;28;20056;-76
2022/06/06 04:50:34;;;;;;;7.57;3.25;;;14.10;99.90;;;;;;5073210;28;20040;-77
2022/06/06 04:53:05;;;;;;;4.82;2.40;;;14.10;99.90;;;;;;5090992;28;20090;-76
2022/06/06 04:55:33;;;;;;;6.47;2.63;;;14.10;99.90;;;;;;5066961;28;20079;-76
2022/06/06 04:58:02;;;;;;;6.22;3.13;;;14.10;99.90;;;;;;5072588;28;20126;-76
2022/06/06 05:00:36;;;;;;;5.75;3.65;;;14.10;99.90;;;;;;5067967;28;20123;-77
2022/06/06 05:03:02;;;;;;;7.15;4.43;;;14.10;99.90;;;;;;5073934;28;20154;-76
2022/06/06 05:05:52;;;;;;;8.43;5.47;;;14.00;99.90;;;;;;5070457;28;20040;-76
2022/06/06 05:09:02;;;;;;;9.68;6.00;;;14.00;99.90;;;;;;5047652;28;20056;-76
2022/06/06 05:11:43;;;;;;;9.38;6.47;;;13.90;99.90;;;;;;5068745;28;20438;-76
2022/06/06 05:14:47;;;;;;;10.10;6.35;;;13.90;99.90;;;;;;5086623;28;20058;-77
2022/06/06 05:17:37;;;;;;;13.32;7.20;;;13.90;99.90;;;;;;5051863;28;20438;-77
2022/06/06 05:20:17;;;;;;;11.10;6.38;;;13.80;99.90;;;;;;5090153;28;21676;-76
2022/06/06 05:23:07;;;;;;;11.53;6.83;;;13.80;99.90;;;;;;5068615;28;20089;-77
2022/06/06 05:25:52;;;;;;;11.57;6.93;;;13.80;99.90;;;;;;5065157;28;20032;-78
2022/06/06 05:28:42;;;;;;;10.50;7.05;;;13.80;99.90;;;;;;5065585;28;20447;-77
2022/06/06 05:31:19;;;;;;;11.38;7.55;;;13.80;99.90;;;;;;5069990;28;20044;-77
2022/06/06 05:33:50;;;;;;;13.18;7.68;;;13.80;99.90;;;;;;5072178;28;20048;-77
2022/06/06 05:36:25;;;;;;;12.57;8.50;;;13.70;99.90;;;;;;5088512;28;20052;-76
2022/06/06 05:39:12;;;;;;;14.63;8.43;;;13.80;99.90;;;;;;5072516;28;20082;-78
2022/06/06 05:41:41;;;;;;;14.32;9.10;;;13.80;99.90;;;;;;5069227;28;20139;-77
2022/06/06 05:44:24;;;;;;;16.67;8.95;;;13.80;99.90;;;;;;5072310;28;20508;-75
2022/06/06 05:47:07;;;;;;;18.17;9.77;;;13.80;99.90;;;;;;5067576;28;20424;-77
2022/06/06 05:49:56;;;;;;;16.73;9.35;;;13.70;99.90;;;;;;5070154;28;20040;-76
2022/06/06 05:52:42;;;;;;;17.05;9.70;;;13.70;99.90;;;;;;5069456;28;20067;-75
2022/06/06 05:55:39;;;;;;;21.48;9.40;;;13.70;99.90;;;;;;5046537;28;20052;-75
2022/06/06 05:58:26;;;;;;;14.32;8.45;;;13.70;99.90;;;;;;5070352;28;20541;-77
2022/06/06 06:01:21;;;;;;;14.63;8.23;;;13.70;99.90;;;;;;5050877;28;20397;-76
2022/06/06 06:04:15;;;;;;;15.25;8.48;;;13.70;99.90;;;;;;5067520;28;20040;-76
2022/06/06 06:06:51;;;;;;;15.77;8.02;;;13.60;99.90;;;;;;5051295;28;20751;-76
2022/06/06 06:09:35;;;;;;;13.05;8.10;;;13.60;99.90;;;;;;5087393;28;20401;-76
2022/06/06 06:12:13;;;;;;;13.52;6.93;;;13.60;99.90;;;;;;5085125;28;20066;-76
2022/06/06 06:14:55;;;;;;;14.38;8.05;;;13.60;99.90;;;;;;5063682;28;20448;-77
2022/06/06 06:17:24;;;;;;;15.73;8.23;;;13.60;99.90;;;;;;5064551;28;20083;-77
2022/06/06 06:20:06;;;;;;;11.90;7.28;;;13.50;99.90;;;;;;5066617;28;20413;-77
2022/06/06 06:22:46;;;;;;;;;;;13.60;99.90;;;;;;5045484;28;20048;-76
2022/06/06 06:25:15;;;;;;;13.88;9.13;;;13.50;99.90;;;;;;5059247;28;20012;-77
2022/06/06 06:27:43;;;;;;;15.57;8.98;;;13.60;99.90;;;;;;5064213;28;20090;-76
2022/06/06 06:30:09;;;;;;;15.40;9.50;;;13.50;99.90;;;;;;5044986;28;20123;-76
2022/06/06 06:32:57;;;;;;;13.95;8.85;;;13.60;99.90;;;;;;5059396;28;20489;-79
2022/06/06 06:35:39;;;;;;;16.30;8.60;;;13.50;99.90;;;;;;5048909;28;20091;-76
2022/06/06 06:38:37;;;;;;;15.52;8.88;;;13.60;99.90;;;;;;5068108;28;20075;-77
2022/06/06 06:41:23;;;;;;;15.15;7.68;;;13.60;99.90;;;;;;5039285;28;20139;-77
2022/06/06 06:43:55;;;;;;;10.57;6.03;;;13.70;99.90;;;;;;5049638;28;20048;-78
2022/06/06 06:46:24;;;;;;;14.02;5.20;;;13.80;99.90;;;;;;5061969;28;20070;-70
2022/06/06 06:48:51;;;;;;;12.63;5.30;;;13.90;99.90;;;;;;5065139;28;20407;-70
2022/06/06 06:51:23;;;;;;;9.32;5.30;;;13.90;99.90;;;;;;5065510;28;20492;-70
2022/06/06 06:54:00;;;;;;;7.03;4.30;;;14.00;99.90;;;;;;5067302;28;20037;-69
2022/06/06 06:57:13;;;;;;;7.65;4.47;;;14.00;99.90;;;;;;5043088;28;20071;-71
2022/06/06 06:59:47;;;;;;;11.07;4.70;;;14.00;99.90;;;;;;5060730;28;20711;-69
2022/06/06 07:08:34;;;;;;;9.63;4.10;;;14.20;99.90;;;;;;5063474;28;20401;-71
2022/06/06 07:11:09;;;;;;;9.25;4.28;;;14.30;99.90;;;;;;5062963;28;20451;-71
2022/06/06 07:13:54;;;;;;;8.45;3.88;;;14.30;99.90;;;;;;5073323;28;20063;-71
2022/06/06 07:16:27;;;;;;;7.10;3.83;;;14.40;99.90;;;;;;5067041;28;20087;-71
2022/06/06 07:19:17;;;;;;;9.20;3.88;;;14.40;99.90;;;;;;5047417;28;20442;-70
2022/06/06 07:21:45;;;;;;;8.77;3.95;;;14.30;99.90;;;;;;5086833;28;20509;-71
2022/06/06 07:24:17;;;;;;;11.55;5.10;;;14.30;99.90;;;;;;5068253;28;20676;-71
2022/06/06 07:26:44;;;;;;;9.35;4.82;;;14.30;99.90;;;;;;5048058;28;20059;-71
2022/06/06 07:29:13;;;;;;;9.95;4.80;;;14.50;99.90;;;;;;5063281;28;20063;-71
2022/06/06 07:31:52;;;;;;;10.05;3.97;;;14.60;99.90;;;;;;5067735;28;20044;-72
2022/06/06 07:35:08;;;;;;;10.55;4.00;;;14.70;99.90;;;;;;5071316;28;20051;-80
2022/06/06 07:37:49;;;;;;;7.05;3.72;;;14.60;99.90;;;;;;5075674;28;20100;-78
2022/06/06 07:40:27;;;;;;;11.48;3.80;;;14.50;99.90;;;;;;5068054;28;20413;-78
2022/06/06 07:43:11;;;;;;;10.80;3.28;;;14.40;99.90;;;;;;5051690;28;20075;-79
2022/06/06 07:45:53;;;;;;;7.82;3.40;;;14.50;99.90;;;;;;5050307;28;20040;-77
2022/06/06 07:48:50;;;;;;;9.32;3.92;;;14.50;99.90;;;;;;5085106;28;20036;-78
2022/06/06 07:51:29;;;;;;;8.90;3.25;;;14.60;99.90;;;;;;5066660;28;20577;-78
2022/06/06 07:54:15;;;;;;;7.70;3.88;;;14.70;99.90;;;;;;5073896;28;20346;-78
2022/06/06 07:57:02;;;;;;;8.35;3.72;;;14.90;99.90;;;;;;5085931;28;20381;-79
2022/06/06 07:59:54;;;;;;;6.95;3.63;;;15.00;99.90;;;;;;5068081;28;20039;-79
2022/06/06 08:02:21;;;;;;;11.82;4.30;;;15.20;99.90;;;;;;5087070;28;20475;-79
2022/06/06 08:05:20;;;;;;;10.15;3.70;;;15.40;99.90;;;;;;5069151;28;20043;-80
2022/06/06 08:08:03;;;;;;;7.07;3.33;;;15.60;99.90;;;;;;5065560;28;20047;-79
2022/06/06 08:10:40;;;;;;;12.32;4.10;;;15.80;99.90;;;;;;5052126;28;20420;-80
2022/06/06 08:13:24;;;;;;;9.57;4.22;;;15.80;99.90;;;;;;5085185;28;20064;-77
2022/06/06 08:16:13;;;;;;;10.55;4.15;;;15.70;99.90;;;;;;5051766;28;20040;-78
2022/06/06 08:18:57;;;;;;;10.93;4.20;;;15.60;99.90;;;;;;5069989;28;20378;-77
2022/06/06 08:21:36;;;;;;;8.70;3.78;;;15.50;99.90;;;;;;5050224;28;20043;-78
2022/06/06 08:24:06;;;;;;;10.35;4.72;;;15.40;99.90;;;;;;5051748;28;20096;-77
2022/06/06 08:26:37;;;;;;;9.18;4.22;;;15.40;99.90;;;;;;5054084;28;20059;-78
2022/06/06 08:29:06;;;;;;;9.23;4.30;;;15.60;99.90;;;;;;5054416;28;20044;-77
2022/06/06 08:31:32;;;;;;;8.75;4.15;;;15.90;99.90;;;;;;5065085;28;20032;-78
2022/06/06 08:33:58;;;;;;;7.60;4.20;;;16.10;99.90;;;;;;5084735;28;20039;-77
2022/06/06 08:36:42;;;;;;;6.97;4.25;;;16.30;99.90;;;;;;5051580;28;20052;-77
2022/06/06 08:39:36;;;;;;;10.07;4.45;;;16.20;99.90;;;;;;5086426;28;20036;-77
2022/06/06 08:42:29;;;;;;;9.80;4.28;;;16.10;99.90;;;;;;5065264;28;20115;-77
2022/06/06 08:45:36;;;;;;;8.95;4.00;;;15.90;99.90;;;;;;5050848;28;20036;-76
2022/06/06 08:48:39;;;;;;;6.75;3.80;;;15.60;99.90;;;;;;5066616;28;20131;-77
2022/06/06 08:51:05;;;;;;;9.30;3.55;;;15.30;99.90;;;;;;5082600;28;20048;-78
2022/06/06 08:53:59;;;;;;;9.50;3.88;;;15.20;99.90;;;;;;5068161;28;20040;-75
2022/06/06 08:56:56;;;;;;;8.85;4.40;;;15.00;99.90;;;;;;5049951;28;20109;-77
2022/06/06 08:59:40;;;;;;;10.02;4.35;;;14.80;99.90;;;;;;5066904;28;20040;-80
2022/06/06 09:02:43;;;;;;;8.05;4.28;;;14.70;99.90;;;;;;5063026;28;20048;-76
2022/06/06 09:05:34;;;;;;;10.40;4.35;;;14.50;99.90;;;;;;5050376;28;20055;-80
2022/06/06 09:08:30;;;;;;;10.00;4.50;;;14.40;99.90;;;;;;5064788;28;20504;-76
2022/06/06 09:11:31;;;;;;;9.98;4.60;;;14.40;99.90;;;;;;5063409;28;20048;-77
2022/06/06 09:14:19;;;;;;;14.50;5.78;;;14.50;99.90;;;;;;5063612;28;20051;-77
2022/06/06 09:17:21;;;;;;;11.07;6.10;;;14.60;99.90;;;;;;5067675;28;20059;-78
2022/06/06 09:19:47;;;;;;;15.65;6.55;;;14.70;99.90;;;;;;5085258;28;20044;-76
2022/06/06 09:22:31;;;;;;;10.95;5.55;;;14.90;99.90;;;;;;5072074;28;20047;-76
2022/06/06 09:25:12;;;;;;;9.85;5.13;;;15.10;99.90;;;;;;5066306;28;20525;-77
2022/06/06 09:27:44;;;;;;;8.30;4.97;;;15.20;99.90;;;;;;5069268;28;20071;-78
2022/06/06 09:30:31;;;;;;;9.50;4.95;;;15.40;99.90;;;;;;5071464;28;20509;-79
2022/06/06 09:33:00;;;;;;;12.88;5.60;;;15.60;99.90;;;;;;5087013;28;20051;-79
2022/06/06 09:35:31;;;;;;;10.73;5.47;;;16.20;99.90;;;;;;5090348;28;20043;-77
2022/06/06 09:38:36;;;;;;;7.93;4.00;;;16.70;99.90;;;;;;5054944;28;20098;-79
2022/06/06 09:41:39;;;;;;;10.15;4.85;;;17.30;99.90;;;;;;5043937;28;20117;-80
2022/06/06 09:44:08;;;;;;;8.38;4.10;;;17.80;99.90;;;;;;5091544;28;20458;-78
2022/06/06 09:47:02;;;;;;;9.65;3.97;;;17.80;99.90;;;;;;5083986;28;20115;-79
2022/06/06 09:50:01;;;;;;;9.07;4.28;;;17.60;99.90;;;;;;5070671;28;20044;-79
2022/06/06 09:52:47;;;;;;;12.82;3.75;;;17.60;99.90;;;;;;5088495;28;20033;-79
2022/06/06 09:59:04;;;;;;;10.30;3.92;;;18.30;99.90;;;;;;5091319;28;20397;-81
2022/06/06 10:01:55;;;;;;;9.85;2.47;;;18.80;99.90;;;;;;5074410;28;20055;-78
2022/06/06 10:04:23;;;;;;;8.00;2.95;;;18.90;99.90;;;;;;5066679;28;20095;-77
2022/06/06 10:07:17;;;;;;;7.22;2.42;;;18.90;99.90;;;;;;5071193;28;20042;-77
2022/06/06 10:10:08;;;;;;;8.38;2.58;;;19.00;99.90;;;;;;5074764;28;20373;-77
2022/06/06 10:12:46;;;;;;;6.78;2.13;;;19.20;99.90;;;;;;5067982;28;20518;-78
2022/06/06 10:15:49;;;;;;;5.80;2.40;;;19.30;99.90;;;;;;5068338;28;20040;-76
2022/06/06 10:18:32;;;;;;;6.80;2.20;;;19.40;99.90;;;;;;5052181;28;20075;-75
2022/06/06 10:21:25;;;;;;;7.82;2.13;;;19.40;99.90;;;;;;5073173;28;20046;-77
2022/06/06 10:24:16;;;;;;;8.90;2.20;;;19.20;99.90;;;;;;5070019;28;20058;-75
2022/06/06 10:27:17;;;;;;;11.48;2.00;;;19.00;99.90;;;;;;5065916;28;20055;-77
2022/06/06 10:30:11;;;;;;;11.82;2.22;;;18.60;99.90;;;;;;5044845;28;20052;-75
2022/06/06 10:33:15;;;;;;;8.48;1.63;;;18.30;99.90;;;;;;5063385;28;20046;-75
2022/06/06 10:35:59;;;;;;;6.57;1.90;;;18.40;99.90;;;;;;5045728;28;20041;-73
2022/06/06 10:38:56;;;;;;;4.68;1.30;;;18.80;99.90;;;;;;5060698;28;20491;-74
2022/06/06 10:41:52;;;;;;;5.38;1.48;;;19.40;99.90;;;;;;5060782;28;20067;-74
2022/06/06 10:44:56;;;;;;;7.45;1.45;;;19.90;99.90;;;;;;5058569;28;20044;-73
2022/06/06 10:48:08;;;;;;;7.50;1.40;;;20.10;99.90;;;;;;5005609;28;20100;-74
2022/06/06 10:51:36;;;;;;;;;;;20.30;99.90;;;;;;5043540;28;20327;-72
2022/06/06 10:53:37;;;;;;;10.70;1.90;;;20.30;99.90;;;;;;5060252;28;20384;-73
2022/06/06 10:56:27;;;;;;;7.45;1.70;;;20.50;99.90;;;;;;5078710;28;20068;-75
2022/06/06 10:59:17;;;;;;;10.15;1.90;;;20.60;99.90;;;;;;5062507;28;20067;-70
2022/06/06 11:02:15;;;;;;;4.82;1.20;;;20.70;99.90;;;;;;5059320;28;20067;-68
2022/06/06 11:05:05;;;;;;;6.55;1.45;;;20.60;99.90;;;;;;5075228;28;20123;-69
2022/06/06 11:07:34;;;;;;;8.85;1.40;;;20.30;99.90;;;;;;5076408;28;20047;-70
2022/06/06 11:10:21;;;;;;;9.63;1.25;;;19.90;99.90;;;;;;5035407;28;20063;-71
2022/06/06 11:13:16;;;;;;;8.80;1.30;;;19.40;99.90;;;;;;5039865;28;20552;-74
2022/06/06 11:15:46;;;;;;;7.05;1.33;;;19.10;99.90;;;;;;5058839;28;20055;-74
2022/06/06 11:18:45;;;;;;;7.32;1.30;;;19.10;99.90;;;;;;5062511;28;20082;-76
2022/06/06 11:21:23;;;;;;;8.55;1.98;;;19.30;99.90;;;;;;5044297;28;20086;-75
2022/06/06 11:24:11;;;;;;;5.88;1.60;;;19.30;99.90;;;;;;5062233;28;20052;-78
2022/06/06 11:27:14;;;;;;;6.10;1.25;;;19.30;99.90;;;;;;5055551;28;20492;-75
2022/06/06 11:30:12;;;;;;;8.68;2.30;;;19.20;99.90;;;;;;5058093;28;20056;-75
2022/06/06 11:32:51;;;;;;;8.25;1.48;;;18.90;99.90;;;;;;5001701;28;20672;-75
2022/06/06 11:35:36;;;;;;;8.02;1.73;;;19.10;99.90;;;;;;5062856;28;20075;-75
2022/06/06 11:38:05;;;;;;;7.50;1.17;;;19.20;99.90;;;;;;5063552;28;20047;-77
2022/06/06 11:40:42;;;;;;;7.05;1.38;;;19.00;99.90;;;;;;5044469;28;20044;-78
2022/06/06 11:43:36;;;;;;;4.45;1.27;;;18.80;99.90;;;;;;5079167;28;20564;-77
2022/06/06 11:46:25;;;;;;;7.75;1.50;;;18.50;99.90;;;;;;5042815;28;20044;-72
2022/06/06 11:49:30;;;;;;;5.78;1.10;;;18.20;99.90;;;;;;5061123;28;20058;-76
2022/06/06 11:52:53;;;;;;;7.60;1.40;;;18.00;99.90;;;;;;5059598;28;20044;-72
2022/06/06 11:55:43;;;;;;;5.55;1.38;;;17.90;99.90;;;;;;4990398;28;20529;-73
2022/06/06 11:58:50;;;;;;;5.50;1.40;;;17.70;99.90;;;;;;4983460;28;20117;-76
2022/06/06 12:02:03;;;;;;;7.45;1.70;;;17.60;99.90;;;;;;5053066;28;20601;-72
2022/06/06 12:05:06;;;;;;;5.88;1.38;;;17.40;99.90;;;;;;4996635;28;20052;-72
2022/06/06 12:08:03;;;;;;;7.63;1.70;;;17.40;99.90;;;;;;5037534;28;20066;-74
2022/06/06 12:10:54;;;;;;;7.68;1.60;;;17.60;99.90;;;;;;5046329;28;20149;-74
2022/06/06 12:13:41;;;;;;;9.30;1.63;;;17.80;99.90;;;;;;5082626;28;20060;-75
2022/06/06 12:16:09;;;;;;;9.70;1.85;;;17.90;99.90;;;;;;5059773;28;20052;-71
2022/06/06 12:18:43;;;;;;;7.63;2.10;;;18.00;99.90;;;;;;5047334;28;20177;-72
2022/06/06 12:21:40;;;;;;;7.80;1.92;;;18.10;99.90;;;;;;5063465;28;20056;-71
2022/06/06 12:24:39;;;;;;;7.78;2.20;;;18.20;99.90;;;;;;5047450;28;20488;-74
2022/06/06 12:27:19;;;;;;;4.03;1.60;;;18.00;99.90;;;;;;5062875;28;20044;-75
2022/06/06 12:29:57;;;;;;;6.75;2.17;;;17.80;99.90;;;;;;5058790;28;20257;-76
2022/06/06 12:32:23;;;;;;;6.68;1.50;;;17.60;99.90;;;;;;5062743;28;20044;-75
2022/06/06 12:34:55;;;;;;;7.30;1.65;;;17.30;99.90;;;;;;5079793;28;20051;-74
2022/06/06 12:37:30;;;;;;;4.07;1.20;;;17.00;99.90;;;;;;5075760;28;20051;-75
2022/06/06 12:40:05;;;;;;;9.13;1.67;;;16.80;99.90;;;;;;5059919;28;20463;-76
2022/06/06 12:42:45;;;;;;;5.47;1.50;;;16.70;99.90;;;;;;5060219;28;20040;-75
2022/06/06 12:45:39;;;;;;;8.27;1.75;;;16.60;99.90;;;;;;5064703;28;20043;-76
2022/06/06 12:48:27;;;;;;;5.70;1.95;;;16.60;99.90;;;;;;5063415;28;20058;-75
2022/06/06 12:51:14;;;;;;;9.02;2.20;;;16.60;99.90;;;;;;5041656;28;20139;-75
2022/06/06 12:53:43;;;;;;;7.10;1.95;;;16.50;99.90;;;;;;5066749;28;20101;-76
2022/06/06 12:56:40;;;;;;;6.28;2.20;;;16.30;99.90;;;;;;5050678;28;20052;-75
2022/06/06 12:59:25;;;;;;;8.45;2.45;;;16.10;99.90;;;;;;5067202;28;20077;-77
2022/06/06 13:01:58;;;;;;;6.35;2.00;;;15.90;99.90;;;;;;5048717;28;20420;-78
2022/06/06 13:04:35;;;;;;;7.45;2.03;;;15.60;99.90;;;;;;5064812;28;20051;-75
2022/06/06 13:07:16;;;;;;;7.72;2.25;;;15.40;99.90;;;;;;5067981;28;20048;-75
2022/06/06 13:10:12;;;;;;;8.88;2.30;;;15.30;99.90;;;;;;5046837;28;20953;-75
2022/06/06 13:13:09;;;;;;;6.30;2.33;;;15.30;99.90;;;;;;5065139;28;20621;-78
2022/06/06 13:15:48;;;;;;;6.63;2.30;;;15.50;99.90;;;;;;5042219;28;20138;-75
2022/06/06 13:18:43;;;;;;;6.00;2.10;;;15.70;99.90;;;;;;5061406;28;20146;-77
2022/06/06 13:21:28;;;;;;;7.85;2.28;;;15.80;99.90;;;;;;5045266;28;20078;-74
2022/06/06 13:24:06;;;;;;;8.02;2.33;;;15.90;99.90;;;;;;5046533;28;20044;-74
2022/06/06 13:26:44;;;;;;;9.57;3.45;;;15.90;99.90;;;;;;5041912;28;20531;-76
2022/06/06 13:29:33;;;;;;;9.02;2.45;;;15.90;99.90;;;;;;5059461;28;20597;-78
2022/06/06 13:32:14;;;;;;;8.63;2.53;;;15.80;99.90;;;;;;5042847;28;20102;-76
2022/06/06 13:35:13;;;;;;;8.93;3.20;;;15.70;99.90;;;;;;5059845;28;20047;-72
2022/06/06 13:37:48;;;;;;;6.68;2.63;;;15.60;99.90;;;;;;5037968;28;20135;-73
2022/06/06 13:40:35;;;;;;;9.40;2.92;;;15.60;99.90;;;;;;5056875;28;20693;-72
2022/06/06 13:43:33;;;;;;;10.20;3.20;;;15.50;99.90;;;;;;5041556;28;20757;-73
2022/06/06 13:46:11;;;;;;;7.47;3.00;;;15.50;99.90;;;;;;5011446;28;20054;-73
2022/06/06 13:48:59;;;;;;;6.15;2.80;;;15.30;99.90;;;;;;5059877;28;20044;-75
2022/06/06 13:51:49;;;;;;;6.78;3.20;;;15.30;99.90;;;;;;5062045;28;20397;-78
2022/06/06 13:54:37;;;;;;;9.80;3.40;;;15.20;99.90;;;;;;5062011;28;20817;-78
2022/06/06 13:57:13;;;;;;;6.68;3.42;;;15.10;99.90;;;;;;5066023;28;20294;-77
2022/06/06 14:00:15;;;;;;;10.15;3.70;;;15.00;99.90;;;;;;5047673;28;20213;-77
2022/06/06 14:03:14;;;;;;;7.00;3.17;;;15.00;99.90;;;;;;5057999;28;20047;-73
2022/06/06 14:05:58;;;;;;;10.70;3.63;;;14.90;99.90;;;;;;5070996;28;20042;-77
2022/06/06 14:08:24;;;;;;;8.65;4.40;;;14.80;99.90;;;;;;5051808;28;20672;-78
2022/06/06 14:10:53;;;;;;;8.55;4.40;;;14.80;99.90;;;;;;5045004;28;20108;-79